Collins, NY (14034)

6:33 PM EDT on April 27, 2015 (GMT -0400)
Top of Zoar Valley | | Change Station
CLOSE
Current Station
Personal Weather Station
Location: Springville, NY
Elevation: 1427 ft
Nearby Weather Stations

Elev 1427 ft 42.50 °N, 78.78 °W | Updated 10 seconds ago

Overcast
Overcast
41.2 °F
Feels Like 37 °F
N
6.0
Wind Variable Wind from West
Gusts 8.3 mph

Today
High -- | Low -- °F
--% Chance of Precip.
Yesterday
High -- | Low -- °F
Precip. -- in
6:16 AM 8:10 PM
Waxing Gibbous, 68% visible
Pressure 29.97 in
Visibility 10.0 miles
Clouds Mostly Cloudy 3000 ft
Mostly Cloudy 3600 ft
Overcast 4300 ft
Windchill 37 °F
Dew Point 41 °F
Humidity 99%
Rainfall 0.00 in
Snow Depth Not available.
UV 1 out of 12
Pollen 8.60 out of 12
Air Quality Not available.
Flu Activity Widespread
METAR KDKK 272153Z AUTO 25009KT 10SM -RA BKN030 BKN036 OVC043 06/02 A2995 RMK AO2 RAB52 SLP147 P0000 T00560022

More Conditions Fewer Conditions

Pressure 29.97 in
Visibility 10.0 miles
Clouds Mostly Cloudy 3000 ft
Mostly Cloudy 3600 ft
Overcast 4300 ft
Windchill 37 °F
Dew Point 41 °F
Humidity 99%
Rainfall 0.00 in
Snow Depth Not available.
UV 1 out of 12
Pollen 8.60 out of 12
Air Quality Not available.
Flu Activity Widespread
METAR KDKK 272153Z AUTO 25009KT 10SM -RA BKN030 BKN036 OVC043 06/02 A2995 RMK AO2 RAB52 SLP147 P0000 T00560022

More Conditions Fewer Conditions

10-Day Weather Forecast

Almanac

Astronomy

Apr. 27, 2015 Rise Set
Actual Time
Civil Twilight
Nautical Twilight
Astronomical Twilight
Moon
Length of Visible Light
Length of Day
Tomorrow will be .
, % of the Moon is Illuminated

Today's Extremes

State Highs State Lows

Community

WunderPhotos

Upload Photos

1,817,442 photos uploaded!

WunderBlogs® & News

Nearby

Air Quality

  Air Quality AQ Index Pollutant
Not available.

Snow Depth

Station Depth Elevation

Earthquake Activity

City Distance Mag. Time & Date
Minimum magnitude displayed is 2.5.

Coastal Water Temperatures

Place Temperature

Stations

Nearby Weather Stations

Station Location Temp. Windchill Dew Point Humidity Wind Precip. Elev Updated Type